createdAt,value
2019-05-16T00:02:08.332Z,86.60
2019-05-16T00:04:37.973Z,90.00
2019-05-16T00:07:08.030Z,90.50
2019-05-16T00:09:38.194Z,91.30
2019-05-16T00:12:08.750Z,91.90
2019-05-16T00:14:38.587Z,93.00
2019-05-16T00:17:08.447Z,93.80
2019-05-16T00:19:38.159Z,94.50
2019-05-16T00:22:08.770Z,95.30
2019-05-16T00:24:38.213Z,96.20
2019-05-16T00:27:08.351Z,97.10
2019-05-16T00:29:38.350Z,97.80
2019-05-16T00:32:08.605Z,99.40
2019-05-16T00:34:38.516Z,99.90
2019-05-16T00:37:08.671Z,99.90
2019-05-16T00:39:38.808Z,99.90
2019-05-16T00:42:08.827Z,99.90
2019-05-16T00:44:38.691Z,99.90
2019-05-16T00:47:08.709Z,99.90
2019-05-16T00:49:38.593Z,99.90
2019-05-16T00:52:07.883Z,99.90
2019-05-16T00:54:38.377Z,99.90
2019-05-16T00:57:08.496Z,99.90
2019-05-16T00:59:38.491Z,99.90
2019-05-16T01:02:08.959Z,99.90
2019-05-16T01:04:38.261Z,99.90
2019-05-16T01:07:08.201Z,99.90
2019-05-16T01:09:38.605Z,99.90
2019-05-16T01:12:08.485Z,99.90
2019-05-16T01:14:38.477Z,99.90
2019-05-16T01:17:08.677Z,99.90
2019-05-16T01:19:38.058Z,99.90
2019-05-16T01:22:08.440Z,99.90
2019-05-16T01:24:38.573Z,99.90
2019-05-16T01:27:08.404Z,99.90
2019-05-16T01:29:38.506Z,99.90
2019-05-16T01:32:08.412Z,99.90
2019-05-16T01:34:37.838Z,99.90
2019-05-16T01:37:08.308Z,99.90
2019-05-16T01:39:38.151Z,99.90
2019-05-16T01:42:07.983Z,99.90
2019-05-16T01:44:38.185Z,99.90
2019-05-16T01:47:09.000Z,99.90
2019-05-16T01:49:38.256Z,99.90
2019-05-16T01:52:08.485Z,99.90
2019-05-16T01:54:38.857Z,99.90
2019-05-16T01:57:08.207Z,99.90
2019-05-16T01:59:38.127Z,99.90
2019-05-16T02:02:08.346Z,99.90
2019-05-16T02:04:38.006Z,99.90
2019-05-16T02:07:08.643Z,99.90
2019-05-16T02:09:38.391Z,99.90
2019-05-16T02:12:10.584Z,99.90
2019-05-16T02:14:38.873Z,99.90
2019-05-16T02:17:10.959Z,99.90
2019-05-16T02:19:38.858Z,99.90
2019-05-16T02:22:08.958Z,99.90
2019-05-16T02:24:38.836Z,99.90
2019-05-16T02:27:09.551Z,99.90
2019-05-16T02:29:40.129Z,99.90
2019-05-16T02:32:11.610Z,99.90
2019-05-16T02:34:41.680Z,99.90
2019-05-16T02:37:23.550Z,99.90
2019-05-16T02:39:41.717Z,99.90
2019-05-16T02:42:11.931Z,99.90
2019-05-16T02:44:41.535Z,99.90
2019-05-16T02:47:10.978Z,99.90
2019-05-16T02:49:42.006Z,99.90
2019-05-16T02:52:11.098Z,99.90
2019-05-16T02:54:41.246Z,99.90
2019-05-16T02:57:11.262Z,99.90
2019-05-16T02:59:41.576Z,99.90
2019-05-16T03:02:11.741Z,99.90
2019-05-16T03:04:44.335Z,99.90
2019-05-16T03:07:31.556Z,99.90
2019-05-16T03:09:44.937Z,99.90
2019-05-16T03:12:14.455Z,99.90
2019-05-16T03:14:44.939Z,99.90
2019-05-16T03:17:16.115Z,99.90
2019-05-16T03:19:46.664Z,99.90
2019-05-16T03:22:21.621Z,99.90
2019-05-16T03:24:51.507Z,99.90
2019-05-16T03:27:21.640Z,99.90
2019-05-16T03:29:50.785Z,99.90
2019-05-16T03:32:24.225Z,99.90
2019-05-16T03:34:54.639Z,99.90
2019-05-16T03:37:24.864Z,99.90
2019-05-16T03:39:52.434Z,99.90
2019-05-16T03:42:21.523Z,99.90
2019-05-16T03:44:51.289Z,99.90
2019-05-16T03:47:21.896Z,99.90
2019-05-16T03:49:51.740Z,99.90
2019-05-16T03:52:21.069Z,99.90
2019-05-16T03:54:50.706Z,99.90
2019-05-16T03:57:21.159Z,99.90
2019-05-16T03:59:51.813Z,99.90
2019-05-16T04:02:21.720Z,99.90
2019-05-16T04:04:51.259Z,99.90
2019-05-16T04:07:21.453Z,99.90
2019-05-16T04:09:50.892Z,99.90
2019-05-16T04:12:21.403Z,99.90
2019-05-16T04:14:51.386Z,99.90
2019-05-16T04:17:21.126Z,99.90
2019-05-16T04:19:50.960Z,99.90
2019-05-16T04:22:21.574Z,99.90
2019-05-16T04:24:51.375Z,99.90
2019-05-16T04:27:21.407Z,99.90
2019-05-16T04:29:51.482Z,99.90
2019-05-16T04:32:21.189Z,99.90
2019-05-16T04:34:51.168Z,99.90
2019-05-16T04:37:24.052Z,99.90
2019-05-16T04:39:51.533Z,99.90
2019-05-16T04:42:21.474Z,99.90
2019-05-16T04:44:51.527Z,99.90
2019-05-16T04:47:21.156Z,99.90
2019-05-16T04:49:51.939Z,99.90
2019-05-16T04:52:21.887Z,99.90
2019-05-16T04:54:51.392Z,99.90
2019-05-16T04:57:21.031Z,99.90
2019-05-16T04:59:51.023Z,99.90
2019-05-16T05:02:21.338Z,99.90
2019-05-16T05:04:51.025Z,99.90
2019-05-16T05:07:20.873Z,99.90
2019-05-16T05:09:51.400Z,99.90
2019-05-16T05:12:20.993Z,99.90
2019-05-16T05:14:51.072Z,99.90
2019-05-16T05:17:21.061Z,99.90
2019-05-16T05:19:50.742Z,99.90
2019-05-16T05:22:20.039Z,99.90
2019-05-16T05:24:50.788Z,99.90
2019-05-16T05:27:20.039Z,99.90
2019-05-16T05:29:50.248Z,99.90
2019-05-16T05:32:19.994Z,99.90
2019-05-16T05:34:50.335Z,99.90
2019-05-16T05:37:20.401Z,99.90
2019-05-16T05:39:50.444Z,99.90
2019-05-16T05:42:20.004Z,99.90
2019-05-16T05:44:50.843Z,99.90
2019-05-16T05:47:20.186Z,99.90
2019-05-16T05:49:49.887Z,99.90
2019-05-16T05:52:20.820Z,99.90
2019-05-16T05:54:50.367Z,99.90
2019-05-16T05:57:20.888Z,99.90
2019-05-16T05:59:50.169Z,99.90
2019-05-16T06:02:20.121Z,99.90
2019-05-16T06:04:50.220Z,99.90
2019-05-16T06:07:20.581Z,99.90
2019-05-16T06:09:55.572Z,99.90
2019-05-16T06:12:21.374Z,99.90
2019-05-16T06:14:50.621Z,99.90
2019-05-16T06:17:20.215Z,99.90
2019-05-16T06:19:49.882Z,99.90
2019-05-16T06:22:20.585Z,99.90
2019-05-16T06:24:50.476Z,99.90
2019-05-16T06:27:20.912Z,99.90
2019-05-16T06:29:50.241Z,99.90
2019-05-16T06:32:19.827Z,99.90
2019-05-16T06:34:50.780Z,99.90
2019-05-16T06:37:20.514Z,99.90
2019-05-16T06:39:50.259Z,99.90
2019-05-16T06:42:20.631Z,99.90
2019-05-16T06:44:50.397Z,99.90
2019-05-16T06:47:22.841Z,99.90
2019-05-16T06:49:51.008Z,99.90
2019-05-16T06:52:20.298Z,99.90
2019-05-16T06:54:50.405Z,99.90
2019-05-16T06:57:20.730Z,99.90
2019-05-16T06:59:50.116Z,99.90
2019-05-16T07:02:29.683Z,99.40
2019-05-16T07:04:50.597Z,98.10
2019-05-16T07:07:20.503Z,94.40
2019-05-16T07:10:00.197Z,93.20
2019-05-16T07:12:20.691Z,91.20
2019-05-16T07:14:50.512Z,84.50
2019-05-16T07:17:20.315Z,82.70
2019-05-16T07:19:50.201Z,82.80
2019-05-16T07:22:20.530Z,84.60
2019-05-16T07:24:50.483Z,86.20
2019-05-16T07:27:21.781Z,85.90
2019-05-16T07:29:50.898Z,86.90
2019-05-16T07:32:20.149Z,86.60
2019-05-16T07:34:49.824Z,89.00
2019-05-16T07:37:20.054Z,88.00
2019-05-16T07:39:51.116Z,88.90
2019-05-16T07:42:20.221Z,88.00
2019-05-16T07:44:50.565Z,87.20
2019-05-16T07:47:20.372Z,84.10
2019-05-16T07:49:50.182Z,86.50
2019-05-16T07:52:20.914Z,87.60
2019-05-16T07:54:50.893Z,87.50
2019-05-16T07:57:22.835Z,88.30
2019-05-16T07:59:50.860Z,89.50
2019-05-16T08:02:20.905Z,89.40
2019-05-16T08:04:50.422Z,87.70
2019-05-16T08:07:20.086Z,88.50
2019-05-16T08:09:50.471Z,88.80
2019-05-16T08:12:25.435Z,88.60
2019-05-16T08:14:50.672Z,89.20
2019-05-16T08:17:21.706Z,86.70
2019-05-16T08:19:50.961Z,85.50
2019-05-16T08:22:22.454Z,83.50
2019-05-16T08:24:51.157Z,84.90
2019-05-16T08:27:20.966Z,85.30
2019-05-16T08:29:51.369Z,79.30
2019-05-16T08:32:23.057Z,77.90
2019-05-16T08:34:51.615Z,77.70
2019-05-16T08:37:36.933Z,81.70
2019-05-16T08:39:51.705Z,83.10
2019-05-16T08:42:21.096Z,85.10
2019-05-16T08:44:51.728Z,79.70
2019-05-16T08:47:21.463Z,75.10
2019-05-16T08:49:52.106Z,76.40
2019-05-16T08:52:22.526Z,78.20
2019-05-16T08:54:51.771Z,77.30
2019-05-16T08:59:52.551Z,77.40
2019-05-16T09:02:27.359Z,74.00
2019-05-16T09:04:53.671Z,73.00
2019-05-16T09:07:23.008Z,73.30
2019-05-16T09:09:52.435Z,71.20
2019-05-16T09:10:30.767Z,79.80
2019-05-16T09:12:21.576Z,75.80
2019-05-16T09:14:50.675Z,75.50
2019-05-16T09:17:19.819Z,72.00
2019-05-16T09:19:48.906Z,71.50
2019-05-16T09:22:18.181Z,73.00
2019-05-16T09:24:48.196Z,71.00
2019-05-16T09:27:18.055Z,68.70
2019-05-16T09:29:47.356Z,74.80
2019-05-16T09:32:22.233Z,73.20
2019-05-16T09:34:47.990Z,72.50
2019-05-16T09:37:18.111Z,72.10
2019-05-16T09:39:48.069Z,72.30
2019-05-16T09:42:17.402Z,75.80
2019-05-16T09:44:47.585Z,74.60
2019-05-16T09:47:17.694Z,73.40
2019-05-16T09:49:47.874Z,71.00
2019-05-16T09:52:17.075Z,73.10
2019-05-16T09:54:46.895Z,69.60
2019-05-16T09:57:17.452Z,69.20
2019-05-16T09:59:46.924Z,69.10
2019-05-16T10:02:17.602Z,69.20
2019-05-16T10:04:47.519Z,73.00
2019-05-16T10:07:17.792Z,74.50
2019-05-16T10:09:50.294Z,69.20
2019-05-16T10:12:18.788Z,70.20
2019-05-16T10:14:48.050Z,68.00
2019-05-16T10:17:17.800Z,68.40
2019-05-16T10:19:47.563Z,69.30
2019-05-16T10:22:17.159Z,68.30
2019-05-16T10:24:46.965Z,64.30
2019-05-16T10:27:17.125Z,67.90
2019-05-16T10:29:48.389Z,68.70
2019-05-16T10:32:17.160Z,68.30
2019-05-16T10:34:46.851Z,70.00
2019-05-16T10:37:17.559Z,66.90
2019-05-16T10:39:47.099Z,68.30
2019-05-16T10:42:28.245Z,65.00
2019-05-16T10:44:48.347Z,65.30
2019-05-16T10:47:17.940Z,65.30
2019-05-16T10:49:47.674Z,62.00
2019-05-16T10:52:16.958Z,64.60
2019-05-16T10:54:57.032Z,64.20
2019-05-16T10:57:17.022Z,62.70
2019-05-16T11:00:04.218Z,63.80
2019-05-16T11:02:17.188Z,59.80
2019-05-16T11:04:57.415Z,59.20
2019-05-16T11:07:17.053Z,59.70
2019-05-16T11:09:57.716Z,60.00
2019-05-16T11:12:20.296Z,59.90
2019-05-16T11:14:47.960Z,62.60
2019-05-16T11:17:19.085Z,61.20
2019-05-16T11:19:47.973Z,59.90
2019-05-16T11:22:17.110Z,60.80
2019-05-16T11:24:47.126Z,58.30
2019-05-16T11:27:16.403Z,59.70
2019-05-16T11:29:47.269Z,60.30
2019-05-16T11:32:16.353Z,61.70
2019-05-16T11:34:47.788Z,61.10
2019-05-16T11:37:17.673Z,64.00
2019-05-16T11:39:46.945Z,61.80
2019-05-16T11:42:17.507Z,60.30
2019-05-16T11:44:47.876Z,59.70
2019-05-16T11:47:17.185Z,59.90
2019-05-16T11:49:47.651Z,60.30
2019-05-16T11:52:18.025Z,60.90
2019-05-16T11:54:47.343Z,61.10
2019-05-16T11:57:17.867Z,67.30
2019-05-16T11:59:47.227Z,67.60
2019-05-16T12:02:17.484Z,65.10
2019-05-16T12:04:47.343Z,65.50
2019-05-16T12:07:19.174Z,66.30
2019-05-16T12:09:54.600Z,65.60
2019-05-16T12:12:20.836Z,65.70
2019-05-16T12:14:49.033Z,68.80
2019-05-16T12:17:18.147Z,69.70
2019-05-16T12:19:49.044Z,69.10
2019-05-16T12:22:18.423Z,68.60
2019-05-16T12:24:47.874Z,68.80
2019-05-16T12:27:17.314Z,66.60
2019-05-16T12:29:47.736Z,64.30
2019-05-16T12:32:17.345Z,64.10
2019-05-16T12:34:46.461Z,65.30
2019-05-16T12:37:15.635Z,66.70
2019-05-16T12:39:46.972Z,65.00
2019-05-16T12:42:15.531Z,65.90
2019-05-16T12:44:46.737Z,68.90
2019-05-16T12:47:15.465Z,68.50
2019-05-16T12:49:44.539Z,65.90
2019-05-16T12:52:13.671Z,67.70
2019-05-16T12:54:42.835Z,69.40
2019-05-16T12:57:11.943Z,69.30
2019-05-16T12:59:42.285Z,69.00
2019-05-16T13:02:11.847Z,68.10
2019-05-16T13:04:40.953Z,69.30
2019-05-16T13:07:10.078Z,71.00
2019-05-16T13:09:39.152Z,70.80
2019-05-16T13:12:08.241Z,69.30
2019-05-16T13:14:40.300Z,67.80
2019-05-16T13:17:08.148Z,66.40
2019-05-16T13:19:44.232Z,64.90
2019-05-16T13:22:08.037Z,63.70
2019-05-16T13:24:38.406Z,65.40
2019-05-16T13:27:08.376Z,66.40
2019-05-16T13:29:37.781Z,71.90
2019-05-16T13:32:07.708Z,68.50
2019-05-16T13:34:38.044Z,70.30
2019-05-16T13:37:07.710Z,68.90
2019-05-16T13:39:36.904Z,69.40
2019-05-16T13:42:08.067Z,68.90
2019-05-16T13:44:37.619Z,69.60
2019-05-16T13:47:07.726Z,66.90
2019-05-16T13:49:38.513Z,67.20
2019-05-16T13:52:07.839Z,68.30
2019-05-16T13:54:36.933Z,68.10
2019-05-16T13:57:06.939Z,67.60
2019-05-16T13:59:37.411Z,67.20
2019-05-16T14:02:08.005Z,66.40
2019-05-16T14:04:37.398Z,67.20
2019-05-16T14:07:07.637Z,66.00
2019-05-16T14:09:37.853Z,68.80
2019-05-16T14:12:07.241Z,68.10
2019-05-16T14:14:41.978Z,68.30
2019-05-16T14:17:14.131Z,67.20
2019-05-16T14:19:40.395Z,68.10
2019-05-16T14:22:09.475Z,69.80
2019-05-16T14:24:40.509Z,68.80
2019-05-16T14:27:09.683Z,70.20
2019-05-16T14:29:38.848Z,69.70
2019-05-16T14:32:10.194Z,69.10
2019-05-16T14:34:38.942Z,66.60
2019-05-16T14:37:08.150Z,67.50
2019-05-16T14:39:38.947Z,69.00
2019-05-16T14:42:08.061Z,69.20
2019-05-16T14:44:57.742Z,66.70
2019-05-16T14:47:07.972Z,68.00
2019-05-16T14:49:37.466Z,67.50
2019-05-16T14:52:06.710Z,66.80
2019-05-16T14:54:37.710Z,67.40
2019-05-16T14:57:06.648Z,67.50
2019-05-16T14:59:36.522Z,64.70
2019-05-16T15:02:07.139Z,66.70
2019-05-16T15:04:37.604Z,67.30
2019-05-16T15:07:07.134Z,69.30
2019-05-16T15:09:38.010Z,70.90
2019-05-16T15:12:07.096Z,68.60
2019-05-16T15:14:37.483Z,70.00
2019-05-16T15:17:07.085Z,68.40
2019-05-16T15:19:36.357Z,68.00
2019-05-16T15:22:07.882Z,69.00
2019-05-16T15:24:37.106Z,70.60
2019-05-16T15:27:08.367Z,69.60
2019-05-16T15:29:37.733Z,69.60
2019-05-16T15:32:07.146Z,68.80
2019-05-16T15:34:48.533Z,70.00
2019-05-16T15:37:17.654Z,68.60
2019-05-16T15:39:47.587Z,69.30
2019-05-16T15:42:18.002Z,70.60
2019-05-16T15:44:47.343Z,70.40
2019-05-16T15:47:17.663Z,69.40
2019-05-16T15:49:47.765Z,70.50
2019-05-16T15:52:17.387Z,70.30
2019-05-16T15:54:46.552Z,70.20
2019-05-16T15:57:17.594Z,71.50
2019-05-16T15:59:46.950Z,70.40
2019-05-16T16:02:17.643Z,70.40
2019-05-16T16:04:47.741Z,72.50
2019-05-16T16:07:18.055Z,71.30
2019-05-16T16:09:47.404Z,70.20
2019-05-16T16:12:17.000Z,70.30
2019-05-16T16:14:46.830Z,70.80
2019-05-16T16:17:17.669Z,73.10
2019-05-16T16:19:47.117Z,72.10
2019-05-16T16:22:17.687Z,70.30
2019-05-16T16:24:47.890Z,69.50
2019-05-16T16:27:17.235Z,71.80
2019-05-16T16:29:48.107Z,71.90
2019-05-16T16:32:17.427Z,71.40
2019-05-16T16:34:49.020Z,71.20
2019-05-16T16:37:17.536Z,71.20
2019-05-16T16:39:47.198Z,70.10
2019-05-16T16:42:16.458Z,70.50
2019-05-16T16:44:47.242Z,72.30
2019-05-16T16:47:17.634Z,71.80
2019-05-16T16:49:46.941Z,72.40
2019-05-16T16:52:16.670Z,73.20
2019-05-16T16:54:47.667Z,73.70
2019-05-16T16:57:17.663Z,73.60
2019-05-16T16:59:47.672Z,73.40
2019-05-16T17:02:17.287Z,72.60
2019-05-16T17:04:51.038Z,71.80
2019-05-16T17:07:17.195Z,72.00
2019-05-16T17:09:47.115Z,73.00
2019-05-16T17:12:16.335Z,73.20
2019-05-16T17:14:46.474Z,75.00
2019-05-16T17:17:17.565Z,75.20
2019-05-16T17:19:47.417Z,75.20
2019-05-16T17:22:20.183Z,75.60
2019-05-16T17:24:47.597Z,76.60
2019-05-16T17:27:16.715Z,77.00
2019-05-16T17:29:47.430Z,77.70
2019-05-16T17:32:16.813Z,78.50
2019-05-16T17:34:45.985Z,79.40
2019-05-16T17:37:17.169Z,79.80
2019-05-16T17:39:47.469Z,80.20
2019-05-16T17:42:16.758Z,80.90
2019-05-16T17:44:47.295Z,81.80
2019-05-16T17:47:17.338Z,82.30
2019-05-16T17:49:46.592Z,82.30
2019-05-16T17:52:16.582Z,83.00
2019-05-16T17:54:46.019Z,84.20
2019-05-16T17:57:16.978Z,85.20
2019-05-16T17:59:47.966Z,86.10
2019-05-16T18:02:17.282Z,86.20
2019-05-16T18:04:47.112Z,87.40
2019-05-16T18:07:16.503Z,87.90
2019-05-16T18:09:45.596Z,90.00
2019-05-16T18:12:14.702Z,89.50
2019-05-16T18:14:46.742Z,89.50
2019-05-16T18:17:15.011Z,90.30
2019-05-16T18:19:46.473Z,90.90
2019-05-16T18:22:14.982Z,92.10
2019-05-16T18:24:44.097Z,92.80
2019-05-16T18:27:13.207Z,93.30
2019-05-16T18:29:42.312Z,93.60
2019-05-16T18:32:11.416Z,94.80
2019-05-16T18:34:40.538Z,94.60
2019-05-16T18:37:09.649Z,95.30
2019-05-16T18:39:38.731Z,96.30
2019-05-16T18:42:07.886Z,97.70
2019-05-16T18:44:37.018Z,98.00
2019-05-16T18:47:11.079Z,98.50
2019-05-16T18:49:36.979Z,99.20
2019-05-16T18:52:06.779Z,99.90
2019-05-16T18:54:37.511Z,99.90
2019-05-16T18:57:07.093Z,99.90
2019-05-16T18:59:36.888Z,99.90
2019-05-16T19:02:09.757Z,99.90
2019-05-16T19:04:37.863Z,99.90
2019-05-16T19:07:07.913Z,99.90
2019-05-16T19:09:37.581Z,99.90
2019-05-16T19:12:06.828Z,99.90
2019-05-16T19:14:36.908Z,99.90
2019-05-16T19:17:20.619Z,99.90
2019-05-16T19:19:37.673Z,99.90
2019-05-16T19:22:07.035Z,99.90
2019-05-16T19:24:36.218Z,99.90
2019-05-16T19:27:06.709Z,99.90
2019-05-16T19:29:36.845Z,99.90
2019-05-16T19:32:07.011Z,99.90
2019-05-16T19:34:36.173Z,99.90
2019-05-16T19:37:06.961Z,99.90
2019-05-16T19:39:37.248Z,99.90
2019-05-16T19:42:06.722Z,99.90
2019-05-16T19:44:37.093Z,99.90
2019-05-16T19:47:07.324Z,99.90
2019-05-16T19:49:37.015Z,99.90
2019-05-16T19:52:08.611Z,99.90
2019-05-16T19:54:37.819Z,99.90
2019-05-16T19:57:07.397Z,99.90
2019-05-16T19:59:36.738Z,99.90
2019-05-16T20:02:07.661Z,99.90
2019-05-16T20:04:36.927Z,99.90
2019-05-16T20:07:07.405Z,99.90
2019-05-16T20:09:36.716Z,99.90
2019-05-16T20:12:07.723Z,99.90
2019-05-16T20:14:36.760Z,99.90
2019-05-16T20:17:07.378Z,99.90
2019-05-16T20:19:36.616Z,99.90
2019-05-16T20:22:07.632Z,99.90
2019-05-16T20:24:36.574Z,99.90
2019-05-16T20:27:07.885Z,99.90
2019-05-16T20:29:36.818Z,99.90
2019-05-16T20:32:07.775Z,99.90
2019-05-16T20:34:37.188Z,99.90
2019-05-16T20:37:09.165Z,99.90
2019-05-16T20:39:37.322Z,99.90
2019-05-16T20:42:07.768Z,99.90
2019-05-16T20:44:37.336Z,99.90
2019-05-16T20:47:07.177Z,99.90
2019-05-16T20:49:37.401Z,99.90
2019-05-16T20:52:07.085Z,99.90
2019-05-16T20:54:37.716Z,99.90
2019-05-16T20:57:06.921Z,99.90
2019-05-16T20:59:36.019Z,99.90
2019-05-16T21:02:06.851Z,99.90
2019-05-16T21:04:37.495Z,99.90
2019-05-16T21:07:10.843Z,99.90
2019-05-16T21:09:37.523Z,99.90
2019-05-16T21:12:08.230Z,99.90
2019-05-16T21:14:37.519Z,99.90
2019-05-16T21:17:06.800Z,99.90
2019-05-16T21:19:36.341Z,99.90
2019-05-16T21:22:07.278Z,99.90
2019-05-16T21:24:37.373Z,99.90
2019-05-16T21:27:06.611Z,99.90
2019-05-16T21:29:36.925Z,99.90
2019-05-16T21:32:07.383Z,99.90
2019-05-16T21:34:36.689Z,99.90
2019-05-16T21:37:14.549Z,99.90
2019-05-16T21:39:36.953Z,99.90
2019-05-16T21:42:07.477Z,99.90
2019-05-16T21:44:37.391Z,99.90
2019-05-16T21:47:06.666Z,99.90
2019-05-16T21:49:37.006Z,99.90
2019-05-16T21:52:06.275Z,99.90
2019-05-16T21:54:36.687Z,99.90
2019-05-16T21:57:06.002Z,99.90
2019-05-16T21:59:37.063Z,99.90
2019-05-16T22:02:06.117Z,99.90
2019-05-16T22:04:36.734Z,99.90
2019-05-16T22:07:07.325Z,99.90
2019-05-16T22:09:37.108Z,99.90
2019-05-16T22:12:06.804Z,99.90
2019-05-16T22:14:43.091Z,99.90
2019-05-16T22:17:12.250Z,99.90
2019-05-16T22:19:41.330Z,99.90
2019-05-16T22:22:10.423Z,99.90
2019-05-16T22:24:39.575Z,99.90
2019-05-16T22:27:08.710Z,99.90
2019-05-16T22:29:37.785Z,99.90
2019-05-16T22:32:09.162Z,99.90
2019-05-16T22:34:37.726Z,99.90
2019-05-16T22:37:06.906Z,99.90
2019-05-16T22:39:37.103Z,99.90
2019-05-16T22:42:09.118Z,99.90
2019-05-16T22:44:37.327Z,99.90
2019-05-16T22:47:06.750Z,99.90
2019-05-16T22:49:36.949Z,99.90
2019-05-16T22:52:06.639Z,99.90
2019-05-16T22:54:37.038Z,99.90
2019-05-16T22:57:06.786Z,99.90
2019-05-16T22:59:35.948Z,99.90
2019-05-16T23:02:11.674Z,99.90
2019-05-16T23:04:37.377Z,99.90
2019-05-16T23:07:07.018Z,99.90
2019-05-16T23:09:36.656Z,99.90
2019-05-16T23:12:07.057Z,99.90
2019-05-16T23:14:36.366Z,99.90
2019-05-16T23:17:06.651Z,99.90
2019-05-16T23:19:36.764Z,99.90
2019-05-16T23:22:07.592Z,99.90
2019-05-16T23:24:36.921Z,99.90
2019-05-16T23:27:06.911Z,99.90
2019-05-16T23:29:36.790Z,99.90
2019-05-16T23:32:07.355Z,99.90
2019-05-16T23:34:37.312Z,99.90
2019-05-16T23:37:06.612Z,99.90
2019-05-16T23:39:37.764Z,99.90
2019-05-16T23:42:06.528Z,99.90
2019-05-16T23:44:36.716Z,99.90
2019-05-16T23:47:07.013Z,99.90
2019-05-16T23:49:36.796Z,99.90
2019-05-16T23:52:07.507Z,99.90
2019-05-16T23:54:36.934Z,99.90
2019-05-16T23:57:06.637Z,99.90
2019-05-16T23:59:36.930Z,99.90
